createdAt,value
2022-12-31T00:01:50.471Z,10.80
2022-12-31T00:04:18.306Z,10.90
2022-12-31T00:06:46.166Z,10.80
2022-12-31T00:09:14.031Z,10.90
2022-12-31T00:11:43.089Z,10.90
2022-12-31T00:14:10.841Z,10.90
2022-12-31T00:16:41.229Z,10.90
2022-12-31T00:19:10.731Z,10.90
2022-12-31T00:21:39.104Z,10.90
2022-12-31T00:24:07.927Z,10.90
2022-12-31T00:26:36.140Z,10.90
2022-12-31T00:29:06.132Z,10.90
2022-12-31T00:31:35.766Z,10.90
2022-12-31T00:34:04.096Z,10.90
2022-12-31T00:36:34.546Z,10.90
2022-12-31T00:39:04.183Z,10.90
2022-12-31T00:41:33.047Z,11.00
2022-12-31T00:44:00.909Z,11.00
2022-12-31T00:46:30.532Z,11.00
2022-12-31T00:48:58.407Z,11.00
2022-12-31T00:51:27.438Z,11.00
2022-12-31T00:53:55.651Z,11.00
2022-12-31T00:56:25.459Z,11.00
2022-12-31T00:58:53.825Z,11.00
2022-12-31T01:01:23.426Z,11.10
2022-12-31T01:03:55.042Z,11.10
2022-12-31T01:06:22.918Z,11.10
2022-12-31T01:08:51.682Z,11.10
2022-12-31T01:11:19.310Z,11.10
2022-12-31T01:13:47.523Z,11.20
2022-12-31T01:16:16.043Z,11.20
2022-12-31T01:18:44.100Z,11.20
2022-12-31T01:21:14.483Z,11.30
2022-12-31T01:23:42.241Z,11.30
2022-12-31T01:26:13.268Z,11.30
2022-12-31T01:28:41.201Z,11.30
2022-12-31T01:31:10.803Z,11.30
2022-12-31T01:33:39.249Z,11.40
2022-12-31T01:36:10.897Z,11.40
2022-12-31T01:38:40.623Z,11.40
2022-12-31T01:41:08.811Z,11.50
2022-12-31T01:43:46.596Z,11.50
2022-12-31T01:46:19.294Z,11.50
2022-12-31T01:48:51.643Z,11.60
2022-12-31T01:51:20.548Z,11.60
2022-12-31T01:53:50.840Z,11.70
2022-12-31T01:56:20.295Z,11.70
2022-12-31T01:58:51.686Z,11.70
2022-12-31T02:01:25.964Z,11.70
2022-12-31T02:03:54.114Z,11.80
2022-12-31T02:06:24.089Z,11.80
2022-12-31T02:08:53.258Z,11.80
2022-12-31T02:11:28.373Z,11.80
2022-12-31T02:13:58.964Z,11.90
2022-12-31T02:16:35.160Z,12.00
2022-12-31T02:19:26.942Z,12.00
2022-12-31T02:22:02.143Z,12.00
2022-12-31T02:25:09.279Z,12.10
2022-12-31T02:27:48.362Z,12.10
2022-12-31T02:30:20.377Z,12.20
2022-12-31T02:33:21.108Z,12.20
2022-12-31T02:35:52.489Z,12.30
2022-12-31T02:38:24.360Z,12.20
2022-12-31T02:40:54.109Z,12.20
2022-12-31T02:43:21.978Z,12.30
2022-12-31T02:45:58.673Z,12.30
2022-12-31T02:48:39.206Z,12.30
2022-12-31T02:51:16.518Z,12.30
2022-12-31T02:54:04.454Z,12.30
2022-12-31T02:56:40.287Z,12.40
2022-12-31T02:59:31.804Z,12.40
2022-12-31T03:02:15.576Z,12.40
2022-12-31T03:04:47.314Z,12.40
2022-12-31T03:07:19.237Z,12.50
2022-12-31T03:09:47.028Z,12.50
2022-12-31T03:12:33.086Z,12.50
2022-12-31T03:15:01.353Z,12.50
2022-12-31T03:17:30.468Z,12.60
2022-12-31T03:20:15.863Z,12.60
2022-12-31T03:22:44.372Z,12.60
2022-12-31T03:25:33.086Z,12.70
2022-12-31T03:28:02.018Z,12.70
2022-12-31T03:30:31.785Z,12.70
2022-12-31T03:33:01.737Z,12.70
2022-12-31T03:35:31.332Z,12.70
2022-12-31T03:37:59.409Z,12.80
2022-12-31T03:40:29.233Z,12.80
2022-12-31T03:42:57.360Z,12.80
2022-12-31T03:45:25.336Z,12.80
2022-12-31T03:47:53.132Z,12.80
2022-12-31T03:50:22.305Z,12.80
2022-12-31T03:52:50.052Z,12.80
2022-12-31T03:55:17.904Z,12.90
2022-12-31T03:57:46.545Z,12.90
2022-12-31T04:00:18.479Z,12.90
2022-12-31T04:02:46.596Z,13.00
2022-12-31T04:05:15.087Z,13.00
2022-12-31T04:07:44.544Z,13.00
2022-12-31T04:10:14.484Z,13.00
2022-12-31T04:12:42.528Z,13.10
2022-12-31T04:15:12.326Z,13.00
2022-12-31T04:17:40.074Z,13.00
2022-12-31T04:20:09.198Z,13.10
2022-12-31T04:22:36.981Z,13.10
2022-12-31T04:25:11.023Z,13.10
2022-12-31T04:27:39.882Z,13.10
2022-12-31T04:30:08.793Z,13.00
2022-12-31T04:32:36.566Z,13.10
2022-12-31T04:35:04.490Z,13.10
2022-12-31T04:37:32.291Z,13.10
2022-12-31T04:40:05.531Z,13.10
2022-12-31T04:42:35.866Z,13.10
2022-12-31T04:45:03.958Z,13.20
2022-12-31T04:47:31.741Z,13.20
2022-12-31T04:49:59.544Z,13.20
2022-12-31T04:52:27.382Z,13.20
2022-12-31T04:54:55.140Z,13.20
2022-12-31T04:57:22.934Z,13.20
2022-12-31T04:59:52.019Z,13.20
2022-12-31T05:02:19.983Z,13.20
2022-12-31T05:04:47.861Z,13.30
2022-12-31T05:07:15.625Z,13.20
2022-12-31T05:09:43.415Z,13.30
2022-12-31T05:12:11.162Z,13.30
2022-12-31T05:14:38.932Z,13.30
2022-12-31T05:17:08.066Z,13.30
2022-12-31T05:19:35.838Z,13.40
2022-12-31T05:22:21.063Z,13.40
2022-12-31T05:24:50.308Z,13.40
2022-12-31T05:27:18.054Z,13.40
2022-12-31T05:29:45.833Z,13.50
2022-12-31T05:32:14.991Z,13.50
2022-12-31T05:34:42.865Z,13.50
2022-12-31T05:37:11.904Z,13.50
2022-12-31T05:39:39.639Z,13.50
2022-12-31T05:42:07.411Z,13.60
2022-12-31T05:44:35.168Z,13.60
2022-12-31T05:47:02.993Z,13.60
2022-12-31T05:49:32.096Z,13.60
2022-12-31T05:51:59.892Z,13.60
2022-12-31T05:54:27.706Z,13.60
2022-12-31T05:56:55.529Z,13.70
2022-12-31T05:59:23.397Z,13.70
2022-12-31T06:01:51.247Z,13.70
2022-12-31T06:04:19.006Z,13.80
2022-12-31T06:06:48.142Z,13.70
2022-12-31T06:09:16.653Z,13.80
2022-12-31T06:11:45.200Z,13.80
2022-12-31T06:14:13.581Z,13.80
2022-12-31T06:16:42.053Z,13.80
2022-12-31T06:19:10.893Z,13.80
2022-12-31T06:21:38.743Z,13.80
2022-12-31T06:24:08.727Z,13.80
2022-12-31T06:26:36.497Z,13.90
2022-12-31T06:29:04.678Z,13.90
2022-12-31T06:31:32.584Z,14.00
2022-12-31T06:34:00.445Z,14.00
2022-12-31T06:36:28.342Z,14.00
2022-12-31T06:38:56.444Z,14.00
2022-12-31T06:41:25.553Z,14.00
2022-12-31T06:43:53.340Z,14.00
2022-12-31T06:46:21.136Z,14.00
2022-12-31T06:48:48.924Z,14.00
2022-12-31T06:51:18.489Z,14.00
2022-12-31T06:53:46.619Z,14.10
2022-12-31T06:56:16.726Z,14.00
2022-12-31T06:58:46.885Z,14.10
2022-12-31T07:01:40.910Z,14.10
2022-12-31T07:04:41.113Z,14.10
2022-12-31T07:07:17.013Z,14.10
2022-12-31T07:09:56.343Z,14.10
2022-12-31T07:12:39.888Z,14.20
2022-12-31T07:15:14.312Z,14.20
2022-12-31T07:17:49.840Z,14.20
2022-12-31T07:20:19.485Z,14.20
2022-12-31T07:22:48.149Z,14.30
2022-12-31T07:25:18.026Z,14.30
2022-12-31T07:28:06.799Z,14.20
2022-12-31T07:30:43.754Z,14.30
2022-12-31T07:33:34.189Z,14.30
2022-12-31T07:36:10.799Z,14.30
2022-12-31T07:38:48.589Z,14.30
2022-12-31T07:41:34.194Z,14.30
2022-12-31T07:44:08.275Z,14.20
2022-12-31T07:46:47.924Z,14.30
2022-12-31T07:49:16.450Z,14.30
2022-12-31T07:54:22.507Z,14.30
2022-12-31T07:56:51.455Z,14.30
2022-12-31T07:59:33.450Z,14.30
2022-12-31T08:02:08.228Z,14.30
2022-12-31T08:04:43.397Z,14.30
2022-12-31T08:07:18.106Z,14.30
2022-12-31T08:09:53.923Z,14.30
2022-12-31T08:12:22.513Z,14.30
2022-12-31T08:14:50.668Z,14.40
2022-12-31T08:17:20.512Z,14.30
2022-12-31T08:19:48.908Z,14.40
2022-12-31T08:22:35.905Z,14.40
2022-12-31T08:25:16.593Z,14.40
2022-12-31T08:27:54.669Z,14.40
2022-12-31T08:30:24.465Z,14.40
2022-12-31T08:33:03.905Z,14.40
2022-12-31T08:35:57.187Z,14.40
2022-12-31T08:38:33.072Z,14.40
2022-12-31T08:41:08.838Z,14.40
2022-12-31T08:43:48.040Z,14.40
2022-12-31T08:46:23.038Z,14.40
2022-12-31T08:48:52.442Z,14.40
2022-12-31T08:51:22.425Z,14.40
2022-12-31T08:53:51.605Z,14.40
2022-12-31T08:56:28.286Z,14.40
2022-12-31T08:59:12.711Z,14.40
2022-12-31T09:01:52.127Z,14.40
2022-12-31T09:04:30.170Z,14.40
2022-12-31T09:07:01.523Z,14.40
2022-12-31T09:09:38.388Z,14.40
2022-12-31T09:12:14.049Z,14.40
2022-12-31T09:14:46.876Z,14.40
2022-12-31T09:17:43.651Z,14.40
2022-12-31T09:20:21.673Z,14.50
2022-12-31T09:22:50.147Z,14.50
2022-12-31T09:25:20.714Z,14.50
2022-12-31T09:28:04.188Z,14.50
2022-12-31T09:30:38.457Z,14.50
2022-12-31T09:33:11.238Z,14.50
2022-12-31T09:35:48.985Z,14.50
2022-12-31T09:38:21.944Z,14.50
2022-12-31T09:41:09.924Z,14.50
2022-12-31T09:44:11.596Z,14.60
2022-12-31T09:47:12.132Z,14.60
2022-12-31T09:50:21.758Z,14.60
2022-12-31T09:53:24.049Z,14.60
2022-12-31T09:55:56.429Z,14.60
2022-12-31T09:58:34.021Z,14.60
2022-12-31T10:01:07.709Z,14.60
2022-12-31T10:03:56.519Z,14.70
2022-12-31T10:06:26.782Z,14.70
2022-12-31T10:09:11.254Z,14.70
2022-12-31T10:11:55.603Z,14.70
2022-12-31T10:14:46.917Z,14.70
2022-12-31T10:17:30.728Z,14.70
2022-12-31T10:20:24.649Z,14.70
2022-12-31T10:23:23.617Z,14.80
2022-12-31T10:26:22.063Z,14.80
2022-12-31T10:28:55.713Z,14.80
2022-12-31T10:31:40.447Z,14.80
2022-12-31T10:34:16.112Z,14.80
2022-12-31T10:36:54.164Z,14.80
2022-12-31T10:39:33.426Z,14.80
2022-12-31T10:42:49.843Z,14.80
2022-12-31T10:45:44.016Z,14.80
2022-12-31T10:48:51.979Z,14.80
2022-12-31T10:51:58.932Z,14.80
2022-12-31T10:54:58.243Z,14.80
2022-12-31T10:58:06.403Z,14.80
2022-12-31T11:00:41.707Z,14.80
2022-12-31T11:03:42.680Z,14.80
2022-12-31T11:06:36.923Z,14.80
2022-12-31T11:09:34.675Z,14.80
2022-12-31T11:12:11.337Z,14.80
2022-12-31T11:15:05.251Z,14.80
2022-12-31T11:17:45.649Z,14.90
2022-12-31T11:20:52.062Z,14.90
2022-12-31T11:23:34.607Z,14.90
2022-12-31T11:26:13.095Z,14.90
2022-12-31T11:28:58.849Z,14.90
2022-12-31T11:31:48.104Z,14.90
2022-12-31T11:34:32.355Z,14.90
2022-12-31T11:37:19.222Z,14.90
2022-12-31T11:39:52.427Z,15.00
2022-12-31T11:42:25.635Z,15.00
2022-12-31T11:45:00.400Z,15.00
2022-12-31T11:50:56.604Z,15.10
2022-12-31T11:53:46.005Z,15.10
2022-12-31T11:56:18.132Z,15.20
2022-12-31T11:58:48.564Z,15.20
2022-12-31T12:01:23.045Z,15.30
2022-12-31T12:03:51.124Z,15.30
2022-12-31T12:06:26.242Z,15.30
2022-12-31T12:08:56.865Z,15.30
2022-12-31T12:11:26.685Z,15.30
2022-12-31T12:13:54.447Z,15.30
2022-12-31T12:16:23.909Z,15.30
2022-12-31T12:19:02.273Z,15.30
2022-12-31T12:21:31.559Z,15.30
2022-12-31T12:24:01.010Z,15.30
2022-12-31T12:26:34.517Z,15.30
2022-12-31T12:29:10.661Z,15.30
2022-12-31T12:31:38.928Z,15.30
2022-12-31T12:34:07.833Z,15.30
2022-12-31T12:36:46.560Z,15.30
2022-12-31T12:39:21.359Z,15.30
2022-12-31T12:41:49.133Z,15.30
2022-12-31T12:44:17.423Z,15.30
2022-12-31T12:46:48.463Z,15.30
2022-12-31T12:49:23.547Z,15.30
2022-12-31T12:52:25.297Z,15.30
2022-12-31T12:55:06.090Z,15.30
2022-12-31T12:57:42.842Z,15.30
2022-12-31T13:00:17.752Z,15.30
2022-12-31T13:03:12.295Z,15.30
2022-12-31T13:05:52.425Z,15.20
2022-12-31T13:08:35.390Z,15.20
2022-12-31T13:11:18.227Z,15.20
2022-12-31T13:13:58.894Z,15.20
2022-12-31T13:16:35.603Z,15.20
2022-12-31T13:19:09.758Z,15.20
2022-12-31T13:21:46.227Z,15.10
2022-12-31T13:24:27.871Z,15.10
2022-12-31T13:27:02.934Z,15.10
2022-12-31T13:29:34.013Z,15.00
2022-12-31T13:32:04.679Z,15.00
2022-12-31T13:34:35.749Z,14.90
2022-12-31T13:37:07.695Z,14.90
2022-12-31T13:39:41.800Z,14.80
2022-12-31T13:42:17.667Z,14.80
2022-12-31T13:44:50.744Z,14.80
2022-12-31T13:47:26.027Z,14.70
2022-12-31T13:49:58.753Z,14.70
2022-12-31T13:52:33.315Z,14.60
2022-12-31T13:55:10.390Z,14.60
2022-12-31T13:57:43.709Z,14.50
2022-12-31T14:00:21.638Z,14.50
2022-12-31T14:02:57.787Z,14.50
2022-12-31T14:05:33.265Z,14.40
2022-12-31T14:08:03.032Z,14.30
2022-12-31T14:10:43.527Z,14.40
2022-12-31T14:13:32.422Z,14.30
2022-12-31T14:16:13.463Z,14.30
2022-12-31T14:18:46.747Z,14.30
2022-12-31T14:21:23.048Z,14.20
2022-12-31T14:23:57.626Z,14.20
2022-12-31T14:26:32.021Z,14.20
2022-12-31T14:29:08.412Z,14.10
2022-12-31T14:31:55.042Z,14.10
2022-12-31T14:34:33.043Z,14.00
2022-12-31T14:37:09.250Z,14.00
2022-12-31T14:39:50.984Z,14.00
2022-12-31T14:42:30.964Z,13.90
2022-12-31T14:45:19.188Z,13.90
2022-12-31T14:47:54.658Z,13.90
2022-12-31T14:50:26.491Z,13.90
2022-12-31T14:52:57.334Z,13.90
2022-12-31T14:55:28.412Z,13.90
2022-12-31T14:58:26.591Z,13.90
2022-12-31T15:00:55.880Z,13.90
2022-12-31T15:03:26.811Z,14.00
2022-12-31T15:05:58.520Z,13.90
2022-12-31T15:08:47.884Z,14.00
2022-12-31T15:11:33.674Z,13.90
2022-12-31T15:14:37.602Z,13.90
2022-12-31T15:17:15.450Z,13.90
2022-12-31T15:20:16.625Z,13.90
2022-12-31T15:22:47.280Z,14.00
2022-12-31T15:25:41.679Z,14.00
2022-12-31T15:28:31.252Z,14.00
2022-12-31T15:31:04.681Z,14.00
2022-12-31T15:33:37.973Z,14.00
2022-12-31T15:36:15.575Z,14.00
2022-12-31T15:38:44.324Z,14.00
2022-12-31T15:41:26.627Z,14.00
2022-12-31T15:44:06.850Z,14.00
2022-12-31T15:46:40.611Z,14.10
2022-12-31T15:49:16.094Z,14.10
2022-12-31T15:51:49.306Z,14.10
2022-12-31T15:54:25.376Z,14.10
2022-12-31T15:56:55.077Z,14.10
2022-12-31T15:59:26.053Z,14.00
2022-12-31T16:01:57.055Z,14.00
2022-12-31T16:04:27.476Z,14.00
2022-12-31T16:06:59.063Z,14.00
2022-12-31T16:09:30.438Z,14.00
2022-12-31T16:11:59.530Z,14.00
2022-12-31T16:14:31.769Z,14.00
2022-12-31T16:17:02.139Z,14.00
2022-12-31T16:19:34.478Z,14.00
2022-12-31T16:22:08.164Z,14.00
2022-12-31T16:24:48.934Z,14.10
2022-12-31T16:27:26.343Z,14.00
2022-12-31T16:30:01.899Z,14.00
2022-12-31T16:32:38.359Z,14.00
2022-12-31T16:35:23.823Z,14.00
2022-12-31T16:38:11.540Z,14.00
2022-12-31T16:40:40.352Z,14.00
2022-12-31T16:43:26.838Z,13.90
2022-12-31T16:45:57.976Z,13.90
2022-12-31T16:48:27.635Z,13.90
2022-12-31T16:50:57.669Z,13.90
2022-12-31T16:53:28.076Z,14.00
2022-12-31T16:55:57.933Z,13.90
2022-12-31T16:58:29.515Z,13.90
2022-12-31T17:01:13.292Z,13.90
2022-12-31T17:03:45.250Z,13.90
2022-12-31T17:06:16.194Z,14.00
2022-12-31T17:08:46.105Z,13.90
2022-12-31T17:11:25.039Z,13.90
2022-12-31T17:13:58.252Z,13.90
2022-12-31T17:16:27.010Z,13.90
2022-12-31T17:18:56.311Z,13.90
2022-12-31T17:21:27.172Z,13.90
2022-12-31T17:23:57.480Z,13.80
2022-12-31T17:26:28.002Z,13.80
2022-12-31T17:28:58.669Z,13.80
2022-12-31T17:31:33.070Z,13.80
2022-12-31T17:34:23.219Z,13.80
2022-12-31T17:37:02.418Z,13.80
2022-12-31T17:39:44.394Z,13.80
2022-12-31T17:42:13.682Z,13.80
2022-12-31T17:44:44.669Z,13.80
2022-12-31T17:47:14.700Z,13.80
2022-12-31T17:49:46.655Z,13.80
2022-12-31T17:52:16.621Z,13.80
2022-12-31T17:54:44.577Z,13.70
2022-12-31T17:57:24.665Z,13.70
2022-12-31T17:59:52.671Z,13.70
2022-12-31T18:02:20.806Z,13.70
2022-12-31T18:04:50.068Z,13.70
2022-12-31T18:07:17.911Z,13.70
2022-12-31T18:09:45.762Z,13.70
2022-12-31T18:12:15.016Z,13.70
2022-12-31T18:14:45.556Z,13.60
2022-12-31T18:17:16.378Z,13.70
2022-12-31T18:22:33.736Z,13.70
2022-12-31T18:25:01.847Z,13.70
2022-12-31T18:27:30.599Z,13.70
2022-12-31T18:30:04.434Z,13.60
2022-12-31T18:32:34.210Z,13.60
2022-12-31T18:35:03.018Z,13.60
2022-12-31T18:37:31.134Z,13.60
2022-12-31T18:40:00.313Z,13.60
2022-12-31T18:42:29.412Z,13.60
2022-12-31T18:44:57.294Z,13.60
2022-12-31T18:47:25.178Z,13.60
2022-12-31T18:49:53.059Z,13.60
2022-12-31T18:52:24.978Z,13.50
2022-12-31T18:54:52.852Z,13.50
2022-12-31T18:57:22.045Z,13.50
2022-12-31T18:59:49.896Z,13.50
2022-12-31T19:02:20.312Z,13.40
2022-12-31T19:04:48.507Z,13.40
2022-12-31T19:07:16.337Z,13.40
2022-12-31T19:09:45.917Z,13.30
2022-12-31T19:12:15.629Z,13.30
2022-12-31T19:14:45.472Z,13.30
2022-12-31T19:17:13.282Z,13.30
2022-12-31T19:19:41.128Z,13.30
2022-12-31T19:22:14.411Z,13.30
2022-12-31T19:24:42.231Z,13.30
2022-12-31T19:27:11.132Z,13.30
2022-12-31T19:29:38.968Z,13.30
2022-12-31T19:32:08.404Z,13.30
2022-12-31T19:34:36.297Z,13.30
2022-12-31T19:37:04.705Z,13.30
2022-12-31T19:39:32.588Z,13.30
2022-12-31T19:42:00.417Z,13.30
2022-12-31T19:44:28.217Z,13.20
2022-12-31T19:46:56.045Z,13.30
2022-12-31T19:49:25.252Z,13.20
2022-12-31T19:51:53.055Z,13.20
2022-12-31T19:54:20.835Z,13.20
2022-12-31T19:56:48.617Z,13.20
2022-12-31T19:59:16.380Z,13.20
2022-12-31T20:01:44.159Z,13.20
2022-12-31T20:04:11.984Z,13.20
2022-12-31T20:06:41.047Z,13.20
2022-12-31T20:09:08.816Z,13.20
2022-12-31T20:11:36.593Z,13.20
2022-12-31T20:14:04.372Z,13.20
2022-12-31T20:16:33.653Z,13.20
2022-12-31T20:19:01.476Z,13.20
2022-12-31T20:21:30.256Z,13.20
2022-12-31T20:23:59.391Z,13.20
2022-12-31T20:26:27.284Z,13.20
2022-12-31T20:28:55.144Z,13.20
2022-12-31T20:31:24.637Z,13.20
2022-12-31T20:33:53.950Z,13.20
2022-12-31T20:36:21.885Z,13.20
2022-12-31T20:38:50.244Z,13.20
2022-12-31T20:41:21.476Z,13.20
2022-12-31T20:43:49.588Z,13.20
2022-12-31T20:46:19.857Z,13.20
2022-12-31T20:48:48.954Z,13.20
2022-12-31T20:51:17.586Z,13.20
2022-12-31T20:53:48.775Z,13.20
2022-12-31T20:56:17.200Z,13.20
2022-12-31T20:58:46.333Z,13.20
2022-12-31T21:01:15.460Z,13.20
2022-12-31T21:06:33.875Z,13.20
2022-12-31T21:09:03.251Z,13.10
2022-12-31T21:11:48.415Z,13.10
2022-12-31T21:14:17.779Z,13.10
2022-12-31T21:16:45.602Z,13.10
2022-12-31T21:19:13.635Z,13.10
2022-12-31T21:21:41.400Z,13.10
2022-12-31T21:24:09.747Z,13.10
2022-12-31T21:26:37.578Z,13.10
2022-12-31T21:29:05.356Z,13.10
2022-12-31T21:31:34.537Z,13.20
2022-12-31T21:34:02.343Z,13.20
2022-12-31T21:36:30.093Z,13.10
2022-12-31T21:38:57.921Z,13.10
2022-12-31T21:41:43.057Z,13.10
2022-12-31T21:44:10.836Z,13.10
2022-12-31T21:46:54.534Z,13.10
2022-12-31T21:49:27.664Z,13.10
2022-12-31T21:52:13.115Z,13.10
2022-12-31T21:54:58.416Z,13.10
2022-12-31T21:57:26.179Z,13.10
2022-12-31T22:00:40.509Z,13.10
2022-12-31T22:03:18.625Z,13.00
2022-12-31T22:05:49.099Z,13.00
2022-12-31T22:08:16.999Z,13.00
2022-12-31T22:10:52.228Z,13.10
2022-12-31T22:13:20.881Z,13.00
2022-12-31T22:15:57.488Z,13.00
2022-12-31T22:18:29.930Z,13.00
2022-12-31T22:21:05.837Z,13.00
2022-12-31T22:23:34.793Z,13.10
2022-12-31T22:26:03.431Z,13.10
2022-12-31T22:28:39.716Z,13.10
2022-12-31T22:31:08.411Z,13.10
2022-12-31T22:33:37.548Z,13.10
2022-12-31T22:36:07.782Z,13.20
2022-12-31T22:38:35.605Z,13.20
2022-12-31T22:41:05.194Z,13.30
2022-12-31T22:43:33.269Z,13.30
2022-12-31T22:46:07.850Z,13.30
2022-12-31T22:48:36.984Z,13.30
2022-12-31T22:51:05.113Z,13.40
2022-12-31T22:53:32.965Z,13.40
2022-12-31T22:56:00.779Z,13.40
2022-12-31T22:58:28.748Z,13.40
2022-12-31T23:00:56.509Z,13.40
2022-12-31T23:03:24.315Z,13.40
2022-12-31T23:05:54.324Z,13.40
2022-12-31T23:08:24.093Z,13.40
2022-12-31T23:11:03.662Z,13.50
2022-12-31T23:13:53.641Z,13.50
2022-12-31T23:16:39.220Z,13.40
2022-12-31T23:19:25.285Z,13.40
2022-12-31T23:22:13.398Z,13.40
2022-12-31T23:24:41.157Z,13.40
2022-12-31T23:27:09.815Z,13.40
2022-12-31T23:29:45.572Z,13.40
2022-12-31T23:32:15.372Z,13.40
2022-12-31T23:34:44.133Z,13.40
2022-12-31T23:37:13.676Z,13.40
2022-12-31T23:39:42.168Z,13.40
2022-12-31T23:42:10.119Z,13.40
2022-12-31T23:44:37.897Z,13.40
2022-12-31T23:47:05.829Z,13.40
2022-12-31T23:49:33.658Z,13.40
2022-12-31T23:52:02.546Z,13.40
2022-12-31T23:54:31.914Z,13.40
2022-12-31T23:56:59.710Z,13.40
2022-12-31T23:59:27.456Z,13.50
